sensor_id;sensor_type;location;lat;lon;timestamp;pressure;altitude;pressure_sealevel;temperature;humidity
21960;BME280;11144;43.030;25.108;2023-03-19T00:00:14;99910.81;;;6.73;100.00
21960;BME280;11144;43.030;25.108;2023-03-19T00:01:48;99906.47;;;6.70;100.00
21960;BME280;11144;43.030;25.108;2023-03-19T00:03:21;99909.09;;;6.70;100.00
21960;BME280;11144;43.030;25.108;2023-03-19T00:04:54;99905.50;;;6.77;100.00
21960;BME280;11144;43.030;25.108;2023-03-19T00:06:28;99903.72;;;6.79;100.00
21960;BME280;11144;43.030;25.108;2023-03-19T00:08:03;99904.63;;;6.78;100.00
21960;BME280;11144;43.030;25.108;2023-03-19T00:09:35;99909.88;;;6.78;100.00
21960;BME280;11144;43.030;25.108;2023-03-19T00:11:10;99902.88;;;6.77;100.00
21960;BME280;11144;43.030;25.108;2023-03-19T00:12:44;99899.34;;;6.78;100.00
21960;BME280;11144;43.030;25.108;2023-03-19T00:14:18;99906.34;;;6.79;100.00
21960;BME280;11144;43.030;25.108;2023-03-19T00:15:51;99900.19;;;6.80;100.00
21960;BME280;11144;43.030;25.108;2023-03-19T00:17:24;99906.31;;;6.82;100.00
21960;BME280;11144;43.030;25.108;2023-03-19T00:18:58;99897.56;;;6.80;100.00
21960;BME280;11144;43.030;25.108;2023-03-19T00:20:31;99892.31;;;6.80;100.00
21960;BME280;11144;43.030;25.108;2023-03-19T00:22:05;99890.56;;;6.79;100.00
21960;BME280;11144;43.030;25.108;2023-03-19T00:23:41;99889.69;;;6.80;100.00
21960;BME280;11144;43.030;25.108;2023-03-19T00:25:14;99876.53;;;6.80;100.00
21960;BME280;11144;43.030;25.108;2023-03-19T00:26:47;99880.22;;;6.67;100.00
21960;BME280;11144;43.030;25.108;2023-03-19T00:28:21;99882.88;;;6.64;100.00
21960;BME280;11144;43.030;25.108;2023-03-19T00:29:53;99881.97;;;6.65;100.00
21960;BME280;11144;43.030;25.108;2023-03-19T00:31:27;99894.25;;;6.66;100.00
21960;BME280;11144;43.030;25.108;2023-03-19T00:33:01;99881.09;;;6.68;100.00
21960;BME280;11144;43.030;25.108;2023-03-19T00:34:34;99884.53;;;6.71;100.00
21960;BME280;11144;43.030;25.108;2023-03-19T00:36:08;99875.72;;;6.75;100.00
21960;BME280;11144;43.030;25.108;2023-03-19T00:37:43;99873.06;;;6.78;100.00
21960;BME280;11144;43.030;25.108;2023-03-19T00:39:18;99871.28;;;6.80;100.00
21960;BME280;11144;43.030;25.108;2023-03-19T00:40:52;99869.53;;;6.82;100.00
21960;BME280;11144;43.030;25.108;2023-03-19T00:42:24;99877.38;;;6.85;100.00
21960;BME280;11144;43.030;25.108;2023-03-19T00:43:58;99867.75;;;6.84;100.00
21960;BME280;11144;43.030;25.108;2023-03-19T00:45:33;99871.22;;;6.86;100.00
21960;BME280;11144;43.030;25.108;2023-03-19T00:47:06;99866.84;;;6.87;100.00
21960;BME280;11144;43.030;25.108;2023-03-19T00:48:40;99862.41;;;6.90;100.00
21960;BME280;11144;43.030;25.108;2023-03-19T00:50:13;99864.13;;;6.91;100.00
21960;BME280;11144;43.030;25.108;2023-03-19T00:51:46;99857.19;;;6.87;100.00
21960;BME280;11144;43.030;25.108;2023-03-19T00:53:20;99860.72;;;6.85;100.00
21960;BME280;11144;43.030;25.108;2023-03-19T00:54:54;99855.59;;;6.77;100.00
21960;BME280;11144;43.030;25.108;2023-03-19T00:56:28;99855.63;;;6.73;100.00
21960;BME280;11144;43.030;25.108;2023-03-19T00:58:01;99859.19;;;6.67;100.00
21960;BME280;11144;43.030;25.108;2023-03-19T00:59:35;99861.78;;;6.70;100.00
21960;BME280;11144;43.030;25.108;2023-03-19T01:01:08;99862.66;;;6.69;100.00
21960;BME280;11144;43.030;25.108;2023-03-19T01:02:42;99853.16;;;6.61;100.00
21960;BME280;11144;43.030;25.108;2023-03-19T01:04:14;99859.19;;;6.67;100.00
21960;BME280;11144;43.030;25.108;2023-03-19T01:05:48;99856.56;;;6.69;100.00
21960;BME280;11144;43.030;25.108;2023-03-19T01:07:22;99852.16;;;6.69;100.00
21960;BME280;11144;43.030;25.108;2023-03-19T01:08:56;99853.03;;;6.71;100.00
21960;BME280;11144;43.030;25.108;2023-03-19T01:10:32;99862.63;;;6.72;100.00
21960;BME280;11144;43.030;25.108;2023-03-19T01:12:08;99855.66;;;6.71;100.00
21960;BME280;11144;43.030;25.108;2023-03-19T01:13:43;99856.56;;;6.69;100.00
21960;BME280;11144;43.030;25.108;2023-03-19T01:15:19;99855.69;;;6.68;100.00
21960;BME280;11144;43.030;25.108;2023-03-19T01:16:51;99859.22;;;6.64;100.00
21960;BME280;11144;43.030;25.108;2023-03-19T01:18:25;99858.41;;;6.62;100.00
21960;BME280;11144;43.030;25.108;2023-03-19T01:19:58;99866.28;;;6.62;100.00
21960;BME280;11144;43.030;25.108;2023-03-19T01:21:31;99861.03;;;6.62;100.00
21960;BME280;11144;43.030;25.108;2023-03-19T01:23:07;99860.16;;;6.60;100.00
21960;BME280;11144;43.030;25.108;2023-03-19T01:24:39;99853.19;;;6.56;100.00
21960;BME280;11144;43.030;25.108;2023-03-19T01:26:14;99861.06;;;6.56;100.00
21960;BME280;11144;43.030;25.108;2023-03-19T01:27:49;99851.47;;;6.54;100.00
21960;BME280;11144;43.030;25.108;2023-03-19T01:29:22;99843.63;;;6.52;100.00
21960;BME280;11144;43.030;25.108;2023-03-19T01:30:58;99854.06;;;6.57;100.00
21960;BME280;11144;43.030;25.108;2023-03-19T01:32:56;99854.09;;;6.55;100.00
21960;BME280;11144;43.030;25.108;2023-03-19T01:34:41;99862.81;;;6.57;100.00
21960;BME280;11144;43.030;25.108;2023-03-19T01:36:17;99863.72;;;6.56;100.00
21960;BME280;11144;43.030;25.108;2023-03-19T01:38:00;99855.84;;;6.53;100.00
21960;BME280;11144;43.030;25.108;2023-03-19T01:39:34;99862.91;;;6.51;100.00
21960;BME280;11144;43.030;25.108;2023-03-19T01:41:14;99859.38;;;6.52;100.00
21960;BME280;11144;43.030;25.108;2023-03-19T01:42:56;99855.03;;;6.50;100.00
21960;BME280;11144;43.030;25.108;2023-03-19T01:44:47;99857.59;;;6.54;100.00
21960;BME280;11144;43.030;25.108;2023-03-19T01:46:40;99862.91;;;6.51;100.00
21960;BME280;11144;43.030;25.108;2023-03-19T01:48:41;99867.28;;;6.49;100.00
21960;BME280;11144;43.030;25.108;2023-03-19T01:50:25;99870.81;;;6.47;100.00
21960;BME280;11144;43.030;25.108;2023-03-19T01:52:18;99866.47;;;6.44;100.00
21960;BME280;11144;43.030;25.108;2023-03-19T01:54:19;99868.22;;;6.42;100.00
21960;BME280;11144;43.030;25.108;2023-03-19T01:56:21;99870.81;;;6.48;100.00
21960;BME280;11144;43.030;25.108;2023-03-19T01:58:08;99871.63;;;6.50;100.00
21960;BME280;11144;43.030;25.108;2023-03-19T02:00:05;99868.13;;;6.53;100.00
21960;BME280;11144;43.030;25.108;2023-03-19T02:01:51;99878.59;;;6.54;100.00
21960;BME280;11144;43.030;25.108;2023-03-19T02:03:28;99875.09;;;6.55;100.00
21960;BME280;11144;43.030;25.108;2023-03-19T02:05:28;99876.88;;;6.53;100.00
21960;BME280;11144;43.030;25.108;2023-03-19T02:07:08;99869.84;;;6.55;100.00
21960;BME280;11144;43.030;25.108;2023-03-19T02:08:44;99879.44;;;6.58;100.00
21960;BME280;11144;43.030;25.108;2023-03-19T02:10:19;99868.84;;;6.65;100.00
21960;BME280;11144;43.030;25.108;2023-03-19T02:11:56;99867.97;;;6.66;100.00
21960;BME280;11144;43.030;25.108;2023-03-19T02:13:30;99866.22;;;6.65;100.00
21960;BME280;11144;43.030;25.108;2023-03-19T02:15:04;99876.69;;;6.68;100.00
21960;BME280;11144;43.030;25.108;2023-03-19T02:16:36;99878.41;;;6.72;100.00
21960;BME280;11144;43.030;25.108;2023-03-19T02:18:10;99871.47;;;6.65;100.00
21960;BME280;11144;43.030;25.108;2023-03-19T02:19:46;99881.94;;;6.68;100.00
21960;BME280;11144;43.030;25.108;2023-03-19T02:21:22;99875.84;;;6.66;100.00
21960;BME280;11144;43.030;25.108;2023-03-19T02:23:02;99882.00;;;6.64;100.00
21960;BME280;11144;43.030;25.108;2023-03-19T02:24:40;99873.22;;;6.66;100.00
21960;BME280;11144;43.030;25.108;2023-03-19T02:26:24;99879.34;;;6.67;100.00
21960;BME280;11144;43.030;25.108;2023-03-19T02:28:05;99881.13;;;6.65;100.00
21960;BME280;11144;43.030;25.108;2023-03-19T02:29:38;99887.22;;;6.65;100.00
21960;BME280;11144;43.030;25.108;2023-03-19T02:31:12;99874.97;;;6.67;100.00
21960;BME280;11144;43.030;25.108;2023-03-19T02:32:46;99878.44;;;6.69;100.00
21960;BME280;11144;43.030;25.108;2023-03-19T02:34:34;99888.91;;;6.72;100.00
21960;BME280;11144;43.030;25.108;2023-03-19T02:36:11;99882.81;;;6.70;100.00
21960;BME280;11144;43.030;25.108;2023-03-19T02:37:46;99888.06;;;6.72;100.00
21960;BME280;11144;43.030;25.108;2023-03-19T02:39:29;99889.78;;;6.74;100.00
21960;BME280;11144;43.030;25.108;2023-03-19T02:41:05;99888.03;;;6.73;100.00
21960;BME280;11144;43.030;25.108;2023-03-19T02:42:40;99885.44;;;6.70;100.00
21960;BME280;11144;43.030;25.108;2023-03-19T02:44:13;99882.84;;;6.67;100.00
21960;BME280;11144;43.030;25.108;2023-03-19T02:45:53;99881.91;;;6.71;100.00
21960;BME280;11144;43.030;25.108;2023-03-19T02:47:27;99886.25;;;6.75;100.00
21960;BME280;11144;43.030;25.108;2023-03-19T02:48:59;99887.16;;;6.71;100.00
21960;BME280;11144;43.030;25.108;2023-03-19T02:50:33;99883.66;;;6.72;100.00
21960;BME280;11144;43.030;25.108;2023-03-19T02:52:06;99881.91;;;6.71;100.00
21960;BME280;11144;43.030;25.108;2023-03-19T02:53:40;99874.06;;;6.70;100.00
21960;BME280;11144;43.030;25.108;2023-03-19T02:55:13;99881.88;;;6.74;100.00
21960;BME280;11144;43.030;25.108;2023-03-19T02:56:49;99882.72;;;6.76;100.00
21960;BME280;11144;43.030;25.108;2023-03-19T02:58:24;99882.81;;;6.72;100.00
21960;BME280;11144;43.030;25.108;2023-03-19T02:59:58;99881.88;;;6.74;100.00
21960;BME280;11144;43.030;25.108;2023-03-19T03:01:30;99879.28;;;6.73;100.00
21960;BME280;11144;43.030;25.108;2023-03-19T03:03:04;99887.13;;;6.76;100.00
21960;BME280;11144;43.030;25.108;2023-03-19T03:04:38;99874.81;;;6.79;100.00
21960;BME280;11144;43.030;25.108;2023-03-19T03:06:12;99874.75;;;6.84;100.00
21960;BME280;11144;43.030;25.108;2023-03-19T03:07:46;99881.75;;;6.83;100.00
21960;BME280;11144;43.030;25.108;2023-03-19T03:09:20;99872.13;;;6.85;100.00
21960;BME280;11144;43.030;25.108;2023-03-19T03:10:53;99869.47;;;6.88;100.00
21960;BME280;11144;43.030;25.108;2023-03-19T03:12:26;99867.69;;;6.87;100.00
21960;BME280;11144;43.030;25.108;2023-03-19T03:14:01;99869.41;;;6.91;100.00
21960;BME280;11144;43.030;25.108;2023-03-19T03:15:34;99875.53;;;6.92;100.00
21960;BME280;11144;43.030;25.108;2023-03-19T03:17:08;99874.66;;;6.91;100.00
21960;BME280;11144;43.030;25.108;2023-03-19T03:18:42;99878.19;;;6.90;100.00
21960;BME280;11144;43.030;25.108;2023-03-19T03:20:15;99876.47;;;6.86;100.00
21960;BME280;11144;43.030;25.108;2023-03-19T03:21:50;99881.72;;;6.86;100.00
21960;BME280;11144;43.030;25.108;2023-03-19T03:23:24;99870.38;;;6.84;100.00
21960;BME280;11144;43.030;25.108;2023-03-19T03:24:57;99877.34;;;6.88;100.00
21960;BME280;11144;43.030;25.108;2023-03-19T03:26:29;99874.72;;;6.88;100.00
21960;BME280;11144;43.030;25.108;2023-03-19T03:28:03;99868.63;;;6.83;100.00
21960;BME280;11144;43.030;25.108;2023-03-19T03:29:38;99880.00;;;6.85;100.00
21960;BME280;11144;43.030;25.108;2023-03-19T03:31:12;99869.53;;;6.81;100.00
21960;BME280;11144;43.030;25.108;2023-03-19T03:32:45;99869.53;;;6.82;100.00
21960;BME280;11144;43.030;25.108;2023-03-19T03:34:19;99866.88;;;6.84;100.00
21960;BME280;11144;43.030;25.108;2023-03-19T03:35:51;99860.78;;;6.80;100.00
21960;BME280;11144;43.030;25.108;2023-03-19T03:37:24;99862.50;;;6.84;100.00
21960;BME280;11144;43.030;25.108;2023-03-19T03:38:57;99868.59;;;6.86;100.00
21960;BME280;11144;43.030;25.108;2023-03-19T03:40:31;99867.75;;;6.84;100.00
21960;BME280;11144;43.030;25.108;2023-03-19T03:42:06;99863.47;;;6.77;100.00
21960;BME280;11144;43.030;25.108;2023-03-19T03:43:40;99860.88;;;6.74;100.00
21960;BME280;11144;43.030;25.108;2023-03-19T03:45:15;99860.91;;;6.71;100.00
21960;BME280;11144;43.030;25.108;2023-03-19T03:46:49;99855.69;;;6.65;100.00
21960;BME280;11144;43.030;25.108;2023-03-19T03:48:22;99863.69;;;6.58;100.00
21960;BME280;11144;43.030;25.108;2023-03-19T03:49:56;99860.13;;;6.63;100.00
21960;BME280;11144;43.030;25.108;2023-03-19T03:51:29;99864.47;;;6.66;100.00
21960;BME280;11144;43.030;25.108;2023-03-19T03:53:02;99857.41;;;6.69;100.00
21960;BME280;11144;43.030;25.108;2023-03-19T03:54:36;99859.16;;;6.70;100.00
21960;BME280;11144;43.030;25.108;2023-03-19T03:56:09;99868.78;;;6.71;100.00
21960;BME280;11144;43.030;25.108;2023-03-19T03:57:43;99867.84;;;6.75;100.00
21960;BME280;11144;43.030;25.108;2023-03-19T03:59:16;99872.19;;;6.79;100.00
21960;BME280;11144;43.030;25.108;2023-03-19T04:00:51;99869.59;;;6.76;100.00
21960;BME280;11144;43.030;25.108;2023-03-19T04:02:26;99864.41;;;6.73;100.00
21960;BME280;11144;43.030;25.108;2023-03-19T04:04:00;99878.31;;;6.81;100.00
21960;BME280;11144;43.030;25.108;2023-03-19T04:05:32;99871.25;;;6.83;100.00
21960;BME280;11144;43.030;25.108;2023-03-19T04:07:05;99871.22;;;6.86;100.00
21960;BME280;11144;43.030;25.108;2023-03-19T04:08:45;99872.94;;;6.87;100.00
21960;BME280;11144;43.030;25.108;2023-03-19T04:10:18;99870.38;;;6.84;100.00
21960;BME280;11144;43.030;25.108;2023-03-19T04:11:51;99875.66;;;6.84;100.00
21960;BME280;11144;43.030;25.108;2023-03-19T04:13:24;99874.75;;;6.85;100.00
21960;BME280;11144;43.030;25.108;2023-03-19T04:14:58;99873.06;;;6.78;100.00
21960;BME280;11144;43.030;25.108;2023-03-19T04:16:34;99873.06;;;6.81;100.00
21960;BME280;11144;43.030;25.108;2023-03-19T04:18:07;99864.25;;;6.82;100.00
21960;BME280;11144;43.030;25.108;2023-03-19T04:19:41;99874.78;;;6.82;100.00
21960;BME280;11144;43.030;25.108;2023-03-19T04:21:15;99873.97;;;6.79;100.00
21960;BME280;11144;43.030;25.108;2023-03-19T04:22:48;99870.47;;;6.77;100.00
21960;BME280;11144;43.030;25.108;2023-03-19T04:24:20;99877.47;;;6.75;100.00
21960;BME280;11144;43.030;25.108;2023-03-19T04:25:57;99878.38;;;6.75;100.00
21960;BME280;11144;43.030;25.108;2023-03-19T04:27:30;99881.88;;;6.74;100.00
21960;BME280;11144;43.030;25.108;2023-03-19T04:29:03;99880.97;;;6.77;100.00
21960;BME280;11144;43.030;25.108;2023-03-19T04:30:37;99888.88;;;6.75;100.00
21960;BME280;11144;43.030;25.108;2023-03-19T04:32:12;99869.59;;;6.76;100.00
21960;BME280;11144;43.030;25.108;2023-03-19T04:33:46;99876.59;;;6.77;100.00
21960;BME280;11144;43.030;25.108;2023-03-19T04:35:20;99874.84;;;6.76;100.00
21960;BME280;11144;43.030;25.108;2023-03-19T04:36:52;99880.97;;;6.78;100.00
21960;BME280;11144;43.030;25.108;2023-03-19T04:38:26;99871.34;;;6.79;100.00
21960;BME280;11144;43.030;25.108;2023-03-19T04:40:00;99874.78;;;6.82;100.00
21960;BME280;11144;43.030;25.108;2023-03-19T04:41:36;99874.78;;;6.81;100.00
21960;BME280;11144;43.030;25.108;2023-03-19T04:43:30;99878.31;;;6.81;100.00
21960;BME280;11144;43.030;25.108;2023-03-19T04:45:07;99873.97;;;6.77;100.00
21960;BME280;11144;43.030;25.108;2023-03-19T04:46:41;99875.69;;;6.81;100.00
21960;BME280;11144;43.030;25.108;2023-03-19T04:48:19;99873.03;;;6.84;100.00
21960;BME280;11144;43.030;25.108;2023-03-19T04:49:55;99876.47;;;6.86;100.00
21960;BME280;11144;43.030;25.108;2023-03-19T04:51:30;99879.97;;;6.88;100.00
21960;BME280;11144;43.030;25.108;2023-03-19T04:53:04;99876.44;;;6.89;100.00
21960;BME280;11144;43.030;25.108;2023-03-19T04:54:37;99883.47;;;6.87;100.00
21960;BME280;11144;43.030;25.108;2023-03-19T04:56:12;99874.72;;;6.88;100.00
21960;BME280;11144;43.030;25.108;2023-03-19T04:57:49;99871.22;;;6.86;100.00
21960;BME280;11144;43.030;25.108;2023-03-19T04:59:24;99868.56;;;6.89;100.00
21960;BME280;11144;43.030;25.108;2023-03-19T05:00:59;99870.28;;;6.92;100.00
21960;BME280;11144;43.030;25.108;2023-03-19T05:02:53;99870.22;;;6.98;100.00
21960;BME280;11144;43.030;25.108;2023-03-19T05:04:28;99860.53;;;7.00;100.00
21960;BME280;11144;43.030;25.108;2023-03-19T05:06:06;99872.69;;;7.08;100.00
21960;BME280;11144;43.030;25.108;2023-03-19T05:07:39;99866.47;;;7.14;100.00
21960;BME280;11144;43.030;25.108;2023-03-19T05:09:14;99859.44;;;7.18;100.00
21960;BME280;11144;43.030;25.108;2023-03-19T05:10:47;99865.50;;;7.23;100.00
21960;BME280;11144;43.030;25.108;2023-03-19T05:12:20;99860.16;;;7.29;100.00
21960;BME280;11144;43.030;25.108;2023-03-19T05:13:55;99851.34;;;7.33;100.00
21960;BME280;11144;43.030;25.108;2023-03-19T05:15:32;99860.84;;;7.40;100.00
21960;BME280;11144;43.030;25.108;2023-03-19T05:17:09;99856.38;;;7.48;100.00
21960;BME280;11144;43.030;25.108;2023-03-19T05:19:09;99855.34;;;7.56;100.00
21960;BME280;11144;43.030;25.108;2023-03-19T05:20:44;99858.75;;;7.64;100.00
21960;BME280;11144;43.030;25.108;2023-03-19T05:22:24;99861.28;;;7.69;100.00
21960;BME280;11144;43.030;25.108;2023-03-19T05:23:58;99851.63;;;7.71;100.00
21960;BME280;11144;43.030;25.108;2023-03-19T05:25:34;99845.41;;;7.75;100.00
21960;BME280;11144;43.030;25.108;2023-03-19T05:27:10;99856.59;;;7.89;100.00
21960;BME280;11144;43.030;25.108;2023-03-19T05:29:01;99852.50;;;8.20;100.00
21960;BME280;11144;43.030;25.108;2023-03-19T05:30:44;99858.06;;;8.55;100.00
21960;BME280;11144;43.030;25.108;2023-03-19T05:32:23;99857.69;;;8.73;100.00
21960;BME280;11144;43.030;25.108;2023-03-19T05:33:58;99861.00;;;8.84;100.00
21960;BME280;11144;43.030;25.108;2023-03-19T05:35:32;99860.06;;;8.41;100.00
21960;BME280;11144;43.030;25.108;2023-03-19T05:37:10;99858.16;;;8.49;100.00
21960;BME280;11144;43.030;25.108;2023-03-19T05:38:45;99863.66;;;8.82;100.00
21960;BME280;11144;43.030;25.108;2023-03-19T05:40:27;99861.84;;;9.24;100.00
21960;BME280;11144;43.030;25.108;2023-03-19T05:42:03;99866.53;;;9.51;100.00
21960;BME280;11144;43.030;25.108;2023-03-19T05:43:37;99855.56;;;9.69;100.00
21960;BME280;11144;43.030;25.108;2023-03-19T05:45:15;99858.91;;;10.12;100.00
21960;BME280;11144;43.030;25.108;2023-03-19T05:46:53;99867.44;;;10.55;100.00
21960;BME280;11144;43.030;25.108;2023-03-19T05:48:30;99867.44;;;10.55;100.00
21960;BME280;11144;43.030;25.108;2023-03-19T05:50:07;99868.16;;;10.92;100.00
21960;BME280;11144;43.030;25.108;2023-03-19T05:51:40;99867.06;;;10.99;100.00
21960;BME280;11144;43.030;25.108;2023-03-19T05:53:17;99867.19;;;11.25;100.00
21960;BME280;11144;43.030;25.108;2023-03-19T05:55:23;99863.72;;;11.51;100.00
21960;BME280;11144;43.030;25.108;2023-03-19T05:57:07;99864.28;;;11.89;100.00
21960;BME280;11144;43.030;25.108;2023-03-19T05:58:57;99858.91;;;12.18;100.00
21960;BME280;11144;43.030;25.108;2023-03-19T06:00:38;99866.06;;;12.41;100.00
21960;BME280;11144;43.030;25.108;2023-03-19T06:02:12;99862.94;;;12.79;100.00
21960;BME280;11144;43.030;25.108;2023-03-19T06:03:45;99868.03;;;13.09;100.00
21960;BME280;11144;43.030;25.108;2023-03-19T06:05:19;99863.16;;;13.43;100.00
21960;BME280;11144;43.030;25.108;2023-03-19T06:06:54;99868.63;;;13.84;100.00
21960;BME280;11144;43.030;25.108;2023-03-19T06:08:29;99873.97;;;14.27;100.00
21960;BME280;11144;43.030;25.108;2023-03-19T06:10:23;99868.41;;;14.53;100.00
21960;BME280;11144;43.030;25.108;2023-03-19T06:12:01;99857.47;;;14.39;100.00
21960;BME280;11144;43.030;25.108;2023-03-19T06:13:53;99869.47;;;14.69;100.00
21960;BME280;11144;43.030;25.108;2023-03-19T06:15:27;99861.31;;;14.92;100.00
21960;BME280;11144;43.030;25.108;2023-03-19T06:17:21;99861.38;;;14.90;100.00
21960;BME280;11144;43.030;25.108;2023-03-19T06:18:54;99866.34;;;15.18;100.00
21960;BME280;11144;43.030;25.108;2023-03-19T06:20:28;99861.78;;;15.40;100.00
21960;BME280;11144;43.030;25.108;2023-03-19T06:22:01;99859.19;;;15.75;100.00
21960;BME280;11144;43.030;25.108;2023-03-19T06:23:36;99855.53;;;15.95;100.00
21960;BME280;11144;43.030;25.108;2023-03-19T06:25:11;99866.88;;;16.00;100.00
21960;BME280;11144;43.030;25.108;2023-03-19T06:26:45;99868.06;;;16.11;100.00
21960;BME280;11144;43.030;25.108;2023-03-19T06:28:19;99864.84;;;16.05;100.00
21960;BME280;11144;43.030;25.108;2023-03-19T06:29:53;99862.44;;;15.99;100.00
21960;BME280;11144;43.030;25.108;2023-03-19T06:31:35;99865.78;;;16.04;100.00
21960;BME280;11144;43.030;25.108;2023-03-19T06:33:28;99864.88;;;15.86;100.00
21960;BME280;11144;43.030;25.108;2023-03-19T06:35:05;99864.34;;;15.97;100.00
21960;BME280;11144;43.030;25.108;2023-03-19T06:36:40;99862.44;;;15.99;100.00
21960;BME280;11144;43.030;25.108;2023-03-19T06:38:17;99866.34;;;16.10;100.00
21960;BME280;11144;43.030;25.108;2023-03-19T06:39:52;99864.47;;;16.12;100.00
21960;BME280;11144;43.030;25.108;2023-03-19T06:41:26;99861.63;;;16.15;100.00
21960;BME280;11144;43.030;25.108;2023-03-19T06:43:09;99860.91;;;15.58;100.00
21960;BME280;11144;43.030;25.108;2023-03-19T06:44:43;99861.66;;;15.61;100.00
21960;BME280;11144;43.030;25.108;2023-03-19T06:46:19;99866.47;;;15.72;100.00
21960;BME280;11144;43.030;25.108;2023-03-19T06:47:52;99869.16;;;15.53;100.00
21960;BME280;11144;43.030;25.108;2023-03-19T06:49:26;99861.78;;;15.58;100.00
21960;BME280;11144;43.030;25.108;2023-03-19T06:50:59;99857.13;;;15.99;100.00
21960;BME280;11144;43.030;25.108;2023-03-19T06:52:33;99865.56;;;16.44;100.00
21960;BME280;11144;43.030;25.108;2023-03-19T06:54:07;99861.91;;;16.79;100.00
21960;BME280;11144;43.030;25.108;2023-03-19T06:55:44;99866.88;;;16.87;84.34
21960;BME280;11144;43.030;25.108;2023-03-19T06:57:18;99870.81;;;17.12;97.53
21960;BME280;11144;43.030;25.108;2023-03-19T06:58:52;99862.91;;;17.43;95.94
21960;BME280;11144;43.030;25.108;2023-03-19T07:00:26;99858.00;;;17.51;88.85
21960;BME280;11144;43.030;25.108;2023-03-19T07:02:00;99850.94;;;17.66;89.78
21960;BME280;11144;43.030;25.108;2023-03-19T07:03:34;99848.69;;;17.89;85.74
21960;BME280;11144;43.030;25.108;2023-03-19T07:05:08;99854.34;;;18.14;85.30
21960;BME280;11144;43.030;25.108;2023-03-19T07:06:41;99850.00;;;18.27;80.85
21960;BME280;11144;43.030;25.108;2023-03-19T07:08:17;99853.25;;;18.48;74.21
21960;BME280;11144;43.030;25.108;2023-03-19T07:09:51;99848.34;;;18.70;81.00
21960;BME280;11144;43.030;25.108;2023-03-19T07:11:25;99848.38;;;18.84;76.25
21960;BME280;11144;43.030;25.108;2023-03-19T07:12:58;99845.13;;;18.79;75.99
21960;BME280;11144;43.030;25.108;2023-03-19T07:14:32;99832.56;;;18.79;73.54
21960;BME280;11144;43.030;25.108;2023-03-19T07:16:06;99840.63;;;18.93;77.68
21960;BME280;11144;43.030;25.108;2023-03-19T07:17:40;99838.13;;;18.17;74.19
21960;BME280;11144;43.030;25.108;2023-03-19T07:19:13;99841.44;;;17.76;73.36
21960;BME280;11144;43.030;25.108;2023-03-19T07:20:47;99842.03;;;17.81;77.85
21960;BME280;11144;43.030;25.108;2023-03-19T07:22:20;99844.53;;;17.68;80.50
21960;BME280;11144;43.030;25.108;2023-03-19T07:23:52;99837.81;;;17.61;75.11
21960;BME280;11144;43.030;25.108;2023-03-19T07:25:26;99831.09;;;17.54;74.21
21960;BME280;11144;43.030;25.108;2023-03-19T07:27:01;99840.03;;;17.53;69.30
21960;BME280;11144;43.030;25.108;2023-03-19T07:28:34;99837.06;;;16.94;65.47
21960;BME280;11144;43.030;25.108;2023-03-19T07:30:09;99834.34;;;17.11;71.63
21960;BME280;11144;43.030;25.108;2023-03-19T07:31:43;99831.00;;;17.23;67.87
21960;BME280;11144;43.030;25.108;2023-03-19T07:33:17;99824.81;;;17.38;66.90
21960;BME280;11144;43.030;25.108;2023-03-19T07:34:50;99827.63;;;17.52;65.88
21960;BME280;11144;43.030;25.108;2023-03-19T07:36:23;99821.75;;;17.61;65.00
21960;BME280;11144;43.030;25.108;2023-03-19T07:37:57;99825.38;;;17.91;64.76
21960;BME280;11144;43.030;25.108;2023-03-19T07:39:31;99827.81;;;18.25;63.52
21960;BME280;11144;43.030;25.108;2023-03-19T07:41:04;99829.00;;;18.35;62.26
21960;BME280;11144;43.030;25.108;2023-03-19T07:42:39;99823.69;;;18.49;60.86
21960;BME280;11144;43.030;25.108;2023-03-19T07:44:16;99827.34;;;18.48;61.38
21960;BME280;11144;43.030;25.108;2023-03-19T07:45:49;99827.34;;;18.48;60.50
21960;BME280;11144;43.030;25.108;2023-03-19T07:47:23;99833.13;;;18.70;61.47
21960;BME280;11144;43.030;25.108;2023-03-19T07:49:00;99827.78;;;18.70;60.17
21960;BME280;11144;43.030;25.108;2023-03-19T07:50:34;99827.72;;;18.86;61.49
21960;BME280;11144;43.030;25.108;2023-03-19T07:52:07;99824.31;;;18.68;60.01
21960;BME280;11144;43.030;25.108;2023-03-19T07:53:41;99822.41;;;18.70;61.09
21960;BME280;11144;43.030;25.108;2023-03-19T07:55:14;99834.59;;;18.76;61.69
21960;BME280;11144;43.030;25.108;2023-03-19T07:56:48;99817.72;;;18.74;63.06
21960;BME280;11144;43.030;25.108;2023-03-19T07:58:23;99819.94;;;18.81;58.83
21960;BME280;11144;43.030;25.108;2023-03-19T07:59:57;99812.47;;;18.86;58.83
21960;BME280;11144;43.030;25.108;2023-03-19T08:01:30;99825.38;;;18.66;58.79
21960;BME280;11144;43.030;25.108;2023-03-19T08:03:04;99821.59;;;18.40;58.74
21960;BME280;11144;43.030;25.108;2023-03-19T08:04:38;99812.50;;;18.27;58.14
21960;BME280;11144;43.030;25.108;2023-03-19T08:06:12;99817.94;;;18.12;57.72
21960;BME280;11144;43.030;25.108;2023-03-19T08:07:45;99811.69;;;18.11;58.45
21960;BME280;11144;43.030;25.108;2023-03-19T08:09:20;99818.25;;;18.21;59.28
21960;BME280;11144;43.030;25.108;2023-03-19T08:10:54;99809.41;;;18.35;59.33
21960;BME280;11144;43.030;25.108;2023-03-19T08:12:28;99803.91;;;18.22;59.67
21960;BME280;11144;43.030;25.108;2023-03-19T08:14:04;99808.19;;;18.40;60.19
21960;BME280;11144;43.030;25.108;2023-03-19T08:15:37;99803.63;;;18.56;58.81
21960;BME280;11144;43.030;25.108;2023-03-19T08:17:10;99812.91;;;18.51;57.62
21960;BME280;11144;43.030;25.108;2023-03-19T08:18:44;99808.03;;;18.43;57.59
21960;BME280;11144;43.030;25.108;2023-03-19T08:20:17;99808.41;;;18.51;57.31